DXXX/LFW METAR and TAF weather

Enter ICAO airport designator
Station Type Date Time Source
DXXX METAR 2019/10/16 19:00 UTC NOAA

DXXX 161900Z 22007KT 9999 FEW010 27/24 Q1012 NOSIG


Station Type Date Time Source
DXXX Decoded METAR 2019/10/16 19:00 UTC NOAA

Lome, Togo (DXXX) 06-10N 001-15E 25M
Oct 16, 2019 - 03:00 PM EDT / 2019.10.16 1900 UTC
Wind: from the SW (220 degrees) at 8 MPH (7 KT):0
Visibility: greater than 7 mile(s):0
Sky conditions: mostly clear
Temperature: 80 F (27 C)
Dew Point: 75 F (24 C)
Relative Humidity: 83%
Pressure (altimeter): 29.88 in. Hg (1012 hPa)
ob: DXXX 161900Z 22007KT 9999 FEW010 27/24 Q1012 NOSIG
cycle: 19

Station Type Date Time Source
DXXX TAF 2019/10/16 18:24 UTC NOAA

TAF DXXX 161700Z 1618/1724 20010KT 9999 FEW012 PROB30
TEMPO 1618/1621 TS BKN012 FEW020CB
BECMG 1700/1702 26005KT
BECMG 1708/1710 20012KT
TEMPO 1714/1721 TS BKN010

Example: see airport list